Time;durP1;ratioP1;P1;durP2;ratioP2;P2;SDS_P1;SDS_P2;PMS_P1;PMS_P2;Temp;Humidity;BMP_temperature;BMP_pressure;BME280_temperature;BME280_humidity;BME280_pressure;Samples;Min_cycle;Max_cycle;Signal;HPM_P1;HPM_P2
2022/03/13 00:00:28;;;;;;;;;10.00;10.00;;;;;;;;5023100;28;11069;-76
2022/03/13 00:02:56;;;;;;;;;6.50;6.50;;;;;;;;5017087;28;11074;-75
2022/03/13 00:05:23;;;;;;;;;10.00;10.00;;;;;;;;5021163;28;12282;-75
2022/03/13 00:07:55;;;;;;;;;7.00;7.00;;;;;;;;5022086;28;11125;-74
2022/03/13 00:10:27;;;;;;;;;6.00;6.00;;;;;;;;5023618;28;11090;-75
2022/03/13 00:12:55;;;;;;;;;11.00;11.00;;;;;;;;5021341;28;10991;-75
2022/03/13 00:15:26;;;;;;;;;8.00;8.00;;;;;;;;5017365;28;11046;-75
2022/03/13 00:17:53;;;;;;;;;11.50;9.50;;;;;;;;5021829;28;11024;-76
2022/03/13 00:20:20;;;;;;;;;10.50;8.00;;;;;;;;5019183;28;11252;-75
2022/03/13 00:22:48;;;;;;;;;6.00;4.50;;;;;;;;5021048;28;11085;-75
2022/03/13 00:25:15;;;;;;;;;11.75;7.75;;;;;;;;5021778;28;10974;-75
2022/03/13 00:27:44;;;;;;;;;10.00;9.50;;;;;;;;5021047;28;10991;-75
2022/03/13 00:30:12;;;;;;;;;11.00;10.75;;;;;;;;5020150;28;10951;-75
2022/03/13 00:32:40;;;;;;;;;7.50;7.50;;;;;;;;5019231;28;11035;-74
2022/03/13 00:35:08;;;;;;;;;9.25;8.00;;;;;;;;5020030;28;11012;-75
2022/03/13 00:37:35;;;;;;;;;6.25;6.25;;;;;;;;5019731;28;11033;-75
2022/03/13 00:40:03;;;;;;;;;7.50;7.50;;;;;;;;5019990;28;11041;-75
2022/03/13 00:42:30;;;;;;;;;12.25;11.00;;;;;;;;5020229;28;10997;-75
2022/03/13 00:44:59;;;;;;;;;11.25;10.00;;;;;;;;5012218;28;11173;-75
2022/03/13 00:47:26;;;;;;;;;15.25;10.00;;;;;;;;5019067;28;10998;-74
2022/03/13 00:49:54;;;;;;;;;10.75;8.75;;;;;;;;5018797;28;11788;-75
2022/03/13 00:52:21;;;;;;;;;10.25;10.25;;;;;;;;5018185;28;10877;-74
2022/03/13 00:54:49;;;;;;;;;11.00;11.00;;;;;;;;5019335;28;11075;-74
2022/03/13 00:57:17;;;;;;;;;13.00;11.00;;;;;;;;5019571;28;11018;-74
2022/03/13 00:59:45;;;;;;;;;13.00;11.50;;;;;;;;5020693;28;11092;-74
2022/03/13 01:02:14;;;;;;;;;10.75;10.75;;;;;;;;5001176;28;11218;-74
2022/03/13 01:04:42;;;;;;;;;9.00;9.00;;;;;;;;5020185;28;11169;-74
2022/03/13 01:07:09;;;;;;;;;12.75;11.75;;;;;;;;5021455;28;11033;-75
2022/03/13 01:09:37;;;;;;;;;12.00;10.75;;;;;;;;5020053;28;10867;-77
2022/03/13 01:12:05;;;;;;;;;13.25;13.25;;;;;;;;5001576;28;11028;-75
2022/03/13 01:14:34;;;;;;;;;13.00;11.75;;;;;;;;5002557;28;11915;-75
2022/03/13 01:17:06;;;;;;;;;10.00;10.00;;;;;;;;5018427;28;11222;-76
2022/03/13 01:19:35;;;;;;;;;11.00;11.00;;;;;;;;5017437;28;11028;-75
2022/03/13 01:22:03;;;;;;;;;12.00;12.00;;;;;;;;5019990;28;10985;-76
2022/03/13 01:24:32;;;;;;;;;17.00;13.25;;;;;;;;5020401;28;11304;-75
2022/03/13 01:27:03;;;;;;;;;9.50;9.00;;;;;;;;5018860;28;11178;-76
2022/03/13 01:29:32;;;;;;;;;12.00;10.00;;;;;;;;5011959;28;11088;-75
2022/03/13 01:32:00;;;;;;;;;11.50;11.50;;;;;;;;5020430;28;11126;-75
2022/03/13 01:34:41;;;;;;;;;10.00;10.00;;;;;;;;5010394;28;12475;-76
2022/03/13 01:37:12;;;;;;;;;12.50;12.50;;;;;;;;5019239;28;11115;-75
2022/03/13 01:39:40;;;;;;;;;10.25;7.75;;;;;;;;5020198;28;11020;-75
2022/03/13 01:42:08;;;;;;;;;13.25;10.50;;;;;;;;5017950;28;12015;-76
2022/03/13 01:44:36;;;;;;;;;9.50;9.50;;;;;;;;5021695;28;10875;-76
2022/03/13 01:47:04;;;;;;;;;10.25;8.00;;;;;;;;5017768;28;10926;-76
2022/03/13 01:49:32;;;;;;;;;8.50;8.50;;;;;;;;5019647;28;11092;-75
2022/03/13 01:52:01;;;;;;;;;10.25;10.25;;;;;;;;5018921;28;11095;-75
2022/03/13 01:54:31;;;;;;;;;15.25;12.75;;;;;;;;5019677;28;11117;-76
2022/03/13 01:57:00;;;;;;;;;13.00;11.75;;;;;;;;5019669;28;11203;-75
2022/03/13 01:59:29;;;;;;;;;6.00;4.00;;;;;;;;5018757;28;11897;-76
2022/03/13 02:01:57;;;;;;;;;12.50;12.50;;;;;;;;5018593;28;10936;-76
2022/03/13 02:04:27;;;;;;;;;12.00;10.50;;;;;;;;5014337;28;10898;-76
2022/03/13 02:06:56;;;;;;;;;11.75;9.25;;;;;;;;5019285;28;11723;-77
2022/03/13 02:09:24;;;;;;;;;11.50;9.75;;;;;;;;5020576;28;11961;-76
2022/03/13 02:11:52;;;;;;;;;10.25;10.25;;;;;;;;4997917;28;11138;-75
2022/03/13 02:14:22;;;;;;;;;10.25;7.75;;;;;;;;5020528;28;11123;-77
2022/03/13 02:16:50;;;;;;;;;11.75;10.00;;;;;;;;5017907;28;10849;-77
2022/03/13 02:19:18;;;;;;;;;9.25;8.00;;;;;;;;5018327;28;11773;-76
2022/03/13 02:21:49;;;;;;;;;14.00;11.50;;;;;;;;5019210;28;11859;-74
2022/03/13 02:24:20;;;;;;;;;11.50;11.50;;;;;;;;5013505;28;11030;-77
2022/03/13 02:26:57;;;;;;;;;9.50;8.50;;;;;;;;5018779;28;10929;-76
2022/03/13 02:29:25;;;;;;;;;6.50;6.50;;;;;;;;5019248;28;11022;-75
2022/03/13 02:31:52;;;;;;;;;9.50;8.00;;;;;;;;5021914;28;10962;-78
2022/03/13 02:34:21;;;;;;;;;9.00;9.00;;;;;;;;5022356;28;10877;-77
2022/03/13 02:37:02;;;;;;;;;9.50;9.50;;;;;;;;5004140;28;11004;-78
2022/03/13 02:39:36;;;;;;;;;8.00;6.75;;;;;;;;5021378;28;11003;-75
2022/03/13 02:42:05;;;;;;;;;10.00;10.00;;;;;;;;5022313;28;10989;-76
2022/03/13 02:44:32;;;;;;;;;9.00;9.00;;;;;;;;5023646;28;11009;-76
2022/03/13 02:47:02;;;;;;;;;8.00;8.00;;;;;;;;5022111;28;10867;-75
2022/03/13 02:49:31;;;;;;;;;10.50;7.75;;;;;;;;5022303;28;10969;-76
2022/03/13 02:52:02;;;;;;;;;11.00;8.00;;;;;;;;5021370;28;11094;-76
2022/03/13 02:54:31;;;;;;;;;10.50;10.50;;;;;;;;5023648;28;11028;-76
2022/03/13 02:56:59;;;;;;;;;8.00;8.00;;;;;;;;5021296;28;10783;-76
2022/03/13 02:59:26;;;;;;;;;8.00;8.00;;;;;;;;5023466;28;10759;-76
2022/03/13 03:01:54;;;;;;;;;8.25;8.25;;;;;;;;5025380;28;11252;-77
2022/03/13 03:04:24;;;;;;;;;10.00;10.00;;;;;;;;5021609;28;10825;-76
2022/03/13 03:07:00;;;;;;;;;10.00;10.00;;;;;;;;5021451;28;10965;-75
2022/03/13 03:09:30;;;;;;;;;11.00;9.50;;;;;;;;5021298;28;11012;-77
2022/03/13 03:12:00;;;;;;;;;7.75;7.75;;;;;;;;5021463;28;11023;-78
2022/03/13 03:14:28;;;;;;;;;8.50;8.50;;;;;;;;5021720;28;11581;-76
2022/03/13 03:16:56;;;;;;;;;11.50;11.00;;;;;;;;5021743;28;11107;-76
2022/03/13 03:19:23;;;;;;;;;10.75;10.75;;;;;;;;5003193;28;10920;-76
2022/03/13 03:21:52;;;;;;;;;12.00;12.00;;;;;;;;5020375;28;11105;-76
2022/03/13 03:24:21;;;;;;;;;12.75;8.00;;;;;;;;5025577;28;11027;-77
2022/03/13 03:26:48;;;;;;;;;11.50;8.00;;;;;;;;5018470;28;11006;-75
2022/03/13 03:29:17;;;;;;;;;10.75;8.50;;;;;;;;5021610;28;10963;-76
2022/03/13 03:31:47;;;;;;;;;7.00;7.00;;;;;;;;5018493;28;11099;-76
2022/03/13 03:34:18;;;;;;;;;12.00;10.75;;;;;;;;5022440;28;10944;-76
2022/03/13 03:36:47;;;;;;;;;15.25;10.25;;;;;;;;5022213;28;10996;-75
2022/03/13 03:39:16;;;;;;;;;6.00;6.00;;;;;;;;5017060;28;10886;-76
2022/03/13 03:41:44;;;;;;;;;8.00;8.00;;;;;;;;5023013;28;11803;-76
2022/03/13 03:44:12;;;;;;;;;9.50;9.50;;;;;;;;5005554;28;10988;-76
2022/03/13 03:46:42;;;;;;;;;12.25;10.00;;;;;;;;5022205;28;10997;-76
2022/03/13 03:49:10;;;;;;;;;10.00;10.00;;;;;;;;5020736;28;11172;-76
2022/03/13 03:51:38;;;;;;;;;7.25;7.25;;;;;;;;5021383;28;10900;-76
2022/03/13 03:54:06;;;;;;;;;11.00;8.25;;;;;;;;5021681;28;10929;-76
2022/03/13 03:56:34;;;;;;;;;6.75;6.75;;;;;;;;5018863;28;10920;-76
2022/03/13 03:59:01;;;;;;;;;11.00;11.00;;;;;;;;5021880;28;10969;-78
2022/03/13 04:01:30;;;;;;;;;10.25;8.50;;;;;;;;5019210;28;11015;-76
2022/03/13 04:03:59;;;;;;;;;9.00;9.00;;;;;;;;5020917;28;11048;-77
2022/03/13 04:06:26;;;;;;;;;10.25;10.25;;;;;;;;5025758;28;11091;-77
2022/03/13 04:08:54;;;;;;;;;9.75;8.75;;;;;;;;5021133;28;10944;-77
2022/03/13 04:11:21;;;;;;;;;7.50;7.50;;;;;;;;5027719;28;11062;-76
2022/03/13 04:13:48;;;;;;;;;11.50;11.50;;;;;;;;5014148;28;11427;-77
2022/03/13 04:16:15;;;;;;;;;7.25;7.25;;;;;;;;5021771;28;11254;-77
2022/03/13 04:18:42;;;;;;;;;8.25;8.25;;;;;;;;5019151;28;11124;-76
2022/03/13 04:21:11;;;;;;;;;10.00;7.00;;;;;;;;5023805;28;11138;-77
2022/03/13 04:23:38;;;;;;;;;11.50;8.25;;;;;;;;5019712;28;11157;-76
2022/03/13 04:26:06;;;;;;;;;10.00;8.00;;;;;;;;5021134;28;11269;-75
2022/03/13 04:28:34;;;;;;;;;11.75;11.75;;;;;;;;5020030;28;11189;-75
2022/03/13 04:31:06;;;;;;;;;8.25;7.75;;;;;;;;5019757;28;11432;-75
2022/03/13 04:33:37;;;;;;;;;8.25;8.25;;;;;;;;5021645;28;11114;-75
2022/03/13 04:36:13;;;;;;;;;9.25;6.00;;;;;;;;5019819;28;11416;-75
2022/03/13 04:38:42;;;;;;;;;10.75;9.50;;;;;;;;5020836;28;11482;-76
2022/03/13 04:41:10;;;;;;;;;10.00;10.00;;;;;;;;5019667;28;11551;-76
2022/03/13 04:43:37;;;;;;;;;11.00;10.50;;;;;;;;5020317;28;11568;-75
2022/03/13 04:46:05;;;;;;;;;7.00;7.00;;;;;;;;5003392;28;12204;-75
2022/03/13 04:48:34;;;;;;;;;10.50;10.50;;;;;;;;5019072;28;11526;-74
2022/03/13 04:51:04;;;;;;;;;10.50;7.75;;;;;;;;5020547;28;11455;-74
2022/03/13 04:53:32;;;;;;;;;11.00;11.00;;;;;;;;5016967;28;11458;-75
2022/03/13 04:56:01;;;;;;;;;10.00;10.00;;;;;;;;5019764;28;11491;-75
2022/03/13 04:58:28;;;;;;;;;9.75;9.75;;;;;;;;5018428;28;11463;-75
2022/03/13 05:00:55;;;;;;;;;9.75;7.00;;;;;;;;5020417;28;11319;-74
2022/03/13 05:03:22;;;;;;;;;9.25;7.25;;;;;;;;5032803;28;11437;-75
2022/03/13 05:05:50;;;;;;;;;11.00;9.00;;;;;;;;5019482;28;11415;-74
2022/03/13 05:08:18;;;;;;;;;9.75;9.75;;;;;;;;5019921;28;12239;-74
2022/03/13 05:10:47;;;;;;;;;12.25;10.50;;;;;;;;5019010;28;11427;-74
2022/03/13 05:13:17;;;;;;;;;5.25;5.25;;;;;;;;5020842;28;11436;-74
2022/03/13 05:15:46;;;;;;;;;7.75;7.50;;;;;;;;5017892;28;11459;-74
2022/03/13 05:18:13;;;;;;;;;8.00;8.00;;;;;;;;5003131;28;11457;-74
2022/03/13 05:20:41;;;;;;;;;3.25;1.75;;;;;;;;5019720;28;11414;-74
2022/03/13 05:23:09;;;;;;;;;10.75;8.25;;;;;;;;5019630;28;12038;-74
2022/03/13 05:25:38;;;;;;;;;8.50;8.50;;;;;;;;5020223;28;11505;-73
2022/03/13 05:28:06;;;;;;;;;10.00;7.00;;;;;;;;5018682;28;11494;-74
2022/03/13 05:30:35;;;;;;;;;9.75;6.75;;;;;;;;5018793;28;11353;-73
2022/03/13 05:33:02;;;;;;;;;10.75;8.75;;;;;;;;5019009;28;11482;-75
2022/03/13 05:35:30;;;;;;;;;8.50;6.75;;;;;;;;5010103;28;11424;-74
2022/03/13 05:37:57;;;;;;;;;10.00;8.75;;;;;;;;5020210;28;11536;-75
2022/03/13 05:40:25;;;;;;;;;6.25;6.25;;;;;;;;5019332;28;11499;-74
2022/03/13 05:42:54;;;;;;;;;6.00;6.00;;;;;;;;5019341;28;11390;-74
2022/03/13 05:45:22;;;;;;;;;4.00;4.00;;;;;;;;5016938;28;12209;-80
2022/03/13 05:47:52;;;;;;;;;7.00;7.00;;;;;;;;5020204;28;11433;-74
2022/03/13 05:50:21;;;;;;;;;9.00;9.00;;;;;;;;5018864;28;11550;-74
2022/03/13 05:52:48;;;;;;;;;7.00;7.00;;;;;;;;5019844;28;11421;-74
2022/03/13 05:55:17;;;;;;;;;9.25;7.00;;;;;;;;5018647;28;11287;-74
2022/03/13 05:57:45;;;;;;;;;7.75;7.00;;;;;;;;5019961;28;11416;-75
2022/03/13 06:00:14;;;;;;;;;6.50;6.50;;;;;;;;5017750;28;11553;-74
2022/03/13 06:02:42;;;;;;;;;7.50;7.50;;;;;;;;5020157;28;11482;-74
2022/03/13 06:05:12;;;;;;;;;5.00;5.00;;;;;;;;5019102;28;12216;-74
2022/03/13 06:07:40;;;;;;;;;3.00;3.00;;;;;;;;5022394;28;11429;-73
2022/03/13 06:10:09;;;;;;;;;8.25;8.25;;;;;;;;5026145;28;11507;-74
2022/03/13 06:12:37;;;;;;;;;6.50;6.50;;;;;;;;5031452;28;11380;-73
2022/03/13 06:15:06;;;;;;;;;8.25;6.25;;;;;;;;5023929;28;11542;-75
2022/03/13 06:17:36;;;;;;;;;8.75;8.75;;;;;;;;5022968;28;11436;-73
2022/03/13 06:20:04;;;;;;;;;9.75;9.75;;;;;;;;5019559;28;11439;-73
2022/03/13 06:22:33;;;;;;;;;12.50;8.00;;;;;;;;5022420;28;11521;-76
2022/03/13 06:25:01;;;;;;;;;8.75;6.00;;;;;;;;5020472;28;11446;-73
2022/03/13 06:27:29;;;;;;;;;7.00;7.00;;;;;;;;5023107;28;11429;-75
2022/03/13 06:30:05;;;;;;;;;10.00;8.50;;;;;;;;5021788;28;11647;-75
2022/03/13 06:32:34;;;;;;;;;9.00;5.75;;;;;;;;5020643;28;11425;-75
2022/03/13 06:35:01;;;;;;;;;7.00;7.00;;;;;;;;5023150;28;11431;-75
2022/03/13 06:37:29;;;;;;;;;5.75;5.25;;;;;;;;5022731;28;11563;-75
2022/03/13 06:39:57;;;;;;;;;6.50;5.00;;;;;;;;5022900;28;11510;-76
2022/03/13 06:42:25;;;;;;;;;8.75;6.00;;;;;;;;5020825;28;12184;-75
2022/03/13 06:44:52;;;;;;;;;6.75;6.75;;;;;;;;5021425;28;11432;-76
2022/03/13 06:47:19;;;;;;;;;10.00;7.75;;;;;;;;5020720;28;11421;-76
2022/03/13 06:49:47;;;;;;;;;6.00;6.00;;;;;;;;5022614;28;11441;-76
2022/03/13 06:52:14;;;;;;;;;10.75;6.00;;;;;;;;5021835;28;11339;-75
2022/03/13 06:54:43;;;;;;;;;10.00;6.50;;;;;;;;5022049;28;11671;-75
2022/03/13 06:57:15;;;;;;;;;7.25;5.75;;;;;;;;5026028;28;11451;-75
2022/03/13 06:59:44;;;;;;;;;5.00;5.00;;;;;;;;5022556;28;11264;-84
2022/03/13 07:05:30;;;;;;;;;9.00;6.00;;;;;;;;5015944;28;12187;-79
2022/03/13 07:07:58;;;;;;;;;5.00;5.00;;;;;;;;5023723;28;11415;-80
2022/03/13 07:10:25;;;;;;;;;6.75;5.50;;;;;;;;5024244;28;11252;-83
2022/03/13 07:12:55;;;;;;;;;3.00;3.00;;;;;;;;5022469;28;11589;-83
2022/03/13 07:15:24;;;;;;;;;6.00;6.00;;;;;;;;5028562;28;11795;-81
2022/03/13 07:17:51;;;;;;;;;5.75;5.75;;;;;;;;5021182;28;11271;-80
2022/03/13 07:20:18;;;;;;;;;3.50;3.50;;;;;;;;5029077;28;11292;-82
2022/03/13 07:22:47;;;;;;;;;4.00;2.25;;;;;;;;5021383;28;11126;-79
2022/03/13 07:25:15;;;;;;;;;9.00;9.00;;;;;;;;5023451;28;10919;-78
2022/03/13 07:27:43;;;;;;;;;7.25;7.25;;;;;;;;5020766;28;11255;-76
2022/03/13 07:30:13;;;;;;;;;8.00;6.50;;;;;;;;5019674;28;11204;-76
2022/03/13 07:32:41;;;;;;;;;5.00;2.75;;;;;;;;5023437;28;10951;-79
2022/03/13 07:35:10;;;;;;;;;5.75;5.75;;;;;;;;5018713;28;10944;-77
2022/03/13 07:37:37;;;;;;;;;57.75;48.25;;;;;;;;5006000;28;10929;-78
2022/03/13 07:40:06;;;;;;;;;4.25;3.50;;;;;;;;5019814;28;11549;-80
2022/03/13 07:42:33;;;;;;;;;40.50;38.00;;;;;;;;5021271;28;10778;-83
2022/03/13 07:45:01;;;;;;;;;7.25;7.00;;;;;;;;5016979;28;11485;-83
2022/03/13 07:47:31;;;;;;;;;11.00;7.00;;;;;;;;5021363;28;10821;-81
2022/03/13 07:49:59;;;;;;;;;4.25;3.75;;;;;;;;5022159;28;10702;-81
2022/03/13 07:52:27;;;;;;;;;16.00;11.75;;;;;;;;5018020;28;10723;-80
2022/03/13 07:54:54;;;;;;;;;9.50;8.50;;;;;;;;5004384;28;10826;-77
2022/03/13 07:57:22;;;;;;;;;6.50;6.50;;;;;;;;5019988;28;10865;-79
2022/03/13 07:59:49;;;;;;;;;6.00;3.00;;;;;;;;5031216;28;10763;-79
2022/03/13 08:02:17;;;;;;;;;4.00;4.00;;;;;;;;4985513;28;10541;-79
2022/03/13 08:04:46;;;;;;;;;3.00;3.00;;;;;;;;5021711;28;10479;-80
2022/03/13 08:07:13;;;;;;;;;6.00;6.00;;;;;;;;5021626;28;10369;-79
2022/03/13 08:09:41;;;;;;;;;6.75;6.25;;;;;;;;5004455;28;10368;-80
2022/03/13 08:12:09;;;;;;;;;8.50;8.00;;;;;;;;5024754;28;10454;-80
2022/03/13 08:14:37;;;;;;;;;3.75;3.75;;;;;;;;5017835;28;11393;-80
2022/03/13 08:17:07;;;;;;;;;10.50;8.50;;;;;;;;5021496;28;10444;-81
2022/03/13 08:19:34;;;;;;;;;3.75;3.75;;;;;;;;5001194;28;10532;-82
2022/03/13 08:22:04;;;;;;;;;7.75;3.00;;;;;;;;5002260;28;10269;-80
2022/03/13 08:24:31;;;;;;;;;5.50;5.50;;;;;;;;5019804;28;10157;-80
2022/03/13 08:26:58;;;;;;;;;3.75;2.75;;;;;;;;5012660;28;10201;-83
2022/03/13 08:29:26;;;;;;;;;3.75;2.00;;;;;;;;5016964;28;10206;-81
2022/03/13 08:31:53;;;;;;;;;3.00;1.00;;;;;;;;5000346;28;10114;-81
2022/03/13 08:34:20;;;;;;;;;4.00;4.00;;;;;;;;5016753;28;10016;-85
2022/03/13 08:36:48;;;;;;;;;2.50;2.50;;;;;;;;5022773;28;10131;-84
2022/03/13 08:39:17;;;;;;;;;2.00;2.00;;;;;;;;5022346;28;10018;-84
2022/03/13 08:41:44;;;;;;;;;2.00;2.00;;;;;;;;5015066;28;9886;-77
2022/03/13 08:44:13;;;;;;;;;6.00;3.75;;;;;;;;4999491;28;9946;-82
2022/03/13 08:46:41;;;;;;;;;3.50;2.00;;;;;;;;5015139;28;9855;-81
2022/03/13 08:49:12;;;;;;;;;3.00;3.00;;;;;;;;5018636;28;11577;-81
2022/03/13 08:51:40;;;;;;;;;3.00;3.00;;;;;;;;5013437;28;9778;-82
2022/03/13 08:54:08;;;;;;;;;2.75;2.75;;;;;;;;5016715;28;9899;-79
2022/03/13 08:56:37;;;;;;;;;1.75;1.75;;;;;;;;5015492;28;9738;-81
2022/03/13 08:59:05;;;;;;;;;2.75;2.75;;;;;;;;5017201;28;9695;-80
2022/03/13 09:01:32;;;;;;;;;2.25;2.25;;;;;;;;5020064;28;9666;-82
2022/03/13 09:04:00;;;;;;;;;2.50;2.00;;;;;;;;4998178;28;10372;-82
2022/03/13 09:06:27;;;;;;;;;6.00;6.00;;;;;;;;5018406;28;9554;-81
2022/03/13 09:08:54;;;;;;;;;3.00;3.00;;;;;;;;5015015;28;9790;-80
2022/03/13 09:11:22;;;;;;;;;11.25;11.25;;;;;;;;5017041;28;9568;-82
2022/03/13 09:13:50;;;;;;;;;2.00;2.00;;;;;;;;5018457;28;10119;-77
2022/03/13 09:16:19;;;;;;;;;2.00;2.00;;;;;;;;5014240;28;10400;-80
2022/03/13 09:18:47;;;;;;;;;1.00;1.00;;;;;;;;5017228;28;9631;-80
2022/03/13 09:21:14;;;;;;;;;2.00;2.00;;;;;;;;5026867;28;9532;-79
2022/03/13 09:23:41;;;;;;;;;0.67;0.67;;;;;;;;5021986;28;9392;-77
2022/03/13 09:26:09;;;;;;;;;9.00;9.00;;;;;;;;5018725;28;9547;-78
2022/03/13 09:28:37;;;;;;;;;2.67;2.67;;;;;;;;5023178;28;9768;-79
2022/03/13 09:31:08;;;;;;;;;1.00;1.00;;;;;;;;5000649;28;9252;-82
2022/03/13 09:33:35;;;;;;;;;1.00;1.00;;;;;;;;5017135;28;9208;-79
2022/03/13 09:36:03;;;;;;;;;2.33;2.33;;;;;;;;5018868;28;9094;-82
2022/03/13 09:38:31;;;;;;;;;1.00;1.00;;;;;;;;5027153;28;9020;-79
2022/03/13 09:40:58;;;;;;;;;2.00;2.00;;;;;;;;5000300;28;9052;-80
2022/03/13 09:43:25;;;;;;;;;1.00;1.00;;;;;;;;5014474;28;9679;-79
2022/03/13 09:45:53;;;;;;;;;3.33;3.33;;;;;;;;5014885;28;9008;-79
2022/03/13 09:48:22;;;;;;;;;3.00;3.00;;;;;;;;5018725;28;9020;-79
2022/03/13 09:50:49;;;;;;;;;2.00;2.00;;;;;;;;5017504;28;9031;-76
2022/03/13 09:53:17;;;;;;;;;2.00;2.00;;;;;;;;5018667;28;8953;-78
2022/03/13 09:55:44;;;;;;;;;10.67;10.67;;;;;;;;5017945;28;9014;-79
2022/03/13 09:58:12;;;;;;;;;3.00;3.00;;;;;;;;5017310;28;9554;-78
2022/03/13 10:00:39;;;;;;;;;19.75;19.25;;;;;;;;5017720;28;9481;-80
2022/03/13 10:03:10;;;;;;;;;2.00;2.00;;;;;;;;5027518;28;10491;-77
2022/03/13 10:05:47;;;;;;;;;4.00;3.00;;;;;;;;5020480;28;8866;-78
2022/03/13 10:08:15;;;;;;;;;1.00;1.00;;;;;;;;5016820;28;8986;-80
2022/03/13 10:10:44;;;;;;;;;2.00;2.00;;;;;;;;5024950;28;8866;-79
2022/03/13 10:13:13;;;;;;;;;1.00;1.00;;;;;;;;5019899;28;8965;-78
2022/03/13 10:15:42;;;;;;;;;1.25;1.25;;;;;;;;5004453;28;8889;-78
2022/03/13 10:18:14;;;;;;;;;1.00;1.00;;;;;;;;5023531;28;8890;-79
2022/03/13 10:20:43;;;;;;;;;1.75;1.75;;;;;;;;5022871;28;9067;-78
2022/03/13 10:23:16;;;;;;;;;2.25;2.25;;;;;;;;5021236;28;8870;-79
2022/03/13 10:25:44;;;;;;;;;1.50;1.50;;;;;;;;5019917;28;8979;-78
2022/03/13 10:28:17;;;;;;;;;2.00;2.00;;;;;;;;5021391;28;8885;-77
2022/03/13 10:30:47;;;;;;;;;1.75;1.75;;;;;;;;5019245;28;8801;-80
2022/03/13 10:33:14;;;;;;;;;3.00;3.00;;;;;;;;5020855;28;8877;-81
2022/03/13 10:35:42;;;;;;;;;2.25;2.25;;;;;;;;5020990;28;8976;-78
2022/03/13 10:38:18;;;;;;;;;1.75;1.75;;;;;;;;5019413;28;9028;-79
2022/03/13 10:40:47;;;;;;;;;2.25;2.25;;;;;;;;5009142;28;9028;-79
2022/03/13 10:43:19;;;;;;;;;1.00;1.00;;;;;;;;5019407;28;8858;-77
2022/03/13 10:45:53;;;;;;;;;1.75;1.75;;;;;;;;5020280;28;8858;-79
2022/03/13 10:48:28;;;;;;;;;0.75;0.75;;;;;;;;5021411;28;8876;-80
2022/03/13 10:50:57;;;;;;;;;1.25;1.25;;;;;;;;5020804;28;8870;-81
2022/03/13 10:53:27;;;;;;;;;1.00;1.00;;;;;;;;5023096;28;8854;-81
2022/03/13 10:56:04;;;;;;;;;2.00;2.00;;;;;;;;5024209;28;8858;-81
2022/03/13 10:58:34;;;;;;;;;2.00;2.00;;;;;;;;5020471;28;8880;-80
2022/03/13 11:01:07;;;;;;;;;1.00;1.00;;;;;;;;5022516;28;8802;-80
2022/03/13 11:03:37;;;;;;;;;2.00;2.00;;;;;;;;5013969;28;8962;-81
2022/03/13 11:06:05;;;;;;;;;4.00;2.00;;;;;;;;5022841;28;8854;-80
2022/03/13 11:08:36;;;;;;;;;1.00;1.00;;;;;;;;5024040;28;8878;-79
2022/03/13 11:11:04;;;;;;;;;1.75;1.75;;;;;;;;5028733;28;9655;-78
2022/03/13 11:13:34;;;;;;;;;1.00;1.00;;;;;;;;5023186;28;8982;-80
2022/03/13 11:16:03;;;;;;;;;12.67;9.67;;;;;;;;5025126;28;8898;-79
2022/03/13 11:18:33;;;;;;;;;8.67;7.33;;;;;;;;5022352;28;9095;-80
2022/03/13 11:21:01;;;;;;;;;3.00;3.00;;;;;;;;5023692;28;9779;-80
2022/03/13 11:23:33;;;;;;;;;4.00;4.00;;;;;;;;5022095;28;8878;-79
2022/03/13 11:26:02;;;;;;;;;1.00;1.00;;;;;;;;5023776;28;8874;-79
2022/03/13 11:28:32;;;;;;;;;1.00;1.00;;;;;;;;5023447;28;8890;-80
2022/03/13 11:30:59;;;;;;;;;3.25;3.25;;;;;;;;5021906;28;8775;-77
2022/03/13 11:33:36;;;;;;;;;3.75;3.25;;;;;;;;5006073;28;9756;-77
2022/03/13 11:36:26;;;;;;;;;3.00;3.00;;;;;;;;5022711;28;8944;-78
2022/03/13 11:38:58;;;;;;;;;2.00;2.00;;;;;;;;5023694;28;8866;-77
2022/03/13 11:41:39;;;;;;;;;2.75;2.75;;;;;;;;5015921;28;9001;-79
2022/03/13 11:44:18;;;;;;;;;2.00;2.00;;;;;;;;5022182;28;8905;-77
2022/03/13 11:46:46;;;;;;;;;1.50;1.50;;;;;;;;5023410;28;8904;-78
2022/03/13 11:49:17;;;;;;;;;3.25;2.00;;;;;;;;5031460;28;8866;-79
2022/03/13 11:51:45;;;;;;;;;2.33;2.33;;;;;;;;5001220;28;8860;-78
2022/03/13 11:54:15;;;;;;;;;2.00;2.00;;;;;;;;5016103;28;8954;-79
2022/03/13 11:56:50;;;;;;;;;3.00;3.00;;;;;;;;5023379;28;8846;-78
2022/03/13 11:59:19;;;;;;;;;2.67;2.67;;;;;;;;5019265;28;8938;-79
2022/03/13 12:01:48;;;;;;;;;1.50;1.50;;;;;;;;5020336;28;8888;-78
2022/03/13 12:04:31;;;;;;;;;2.00;2.00;;;;;;;;4991747;28;8898;-78
2022/03/13 12:07:00;;;;;;;;;2.00;2.00;;;;;;;;5021708;28;8949;-78
2022/03/13 12:09:32;;;;;;;;;2.00;2.00;;;;;;;;5024316;28;9032;-78
2022/03/13 12:12:06;;;;;;;;;4.00;2.33;;;;;;;;5024619;28;9088;-77
2022/03/13 12:14:59;;;;;;;;;2.00;2.00;;;;;;;;5021690;28;9000;-79
2022/03/13 12:17:29;;;;;;;;;4.00;3.00;;;;;;;;5023928;28;9858;-78
2022/03/13 12:20:02;;;;;;;;;3.00;3.00;;;;;;;;5024125;28;9017;-77
2022/03/13 12:22:31;;;;;;;;;5.00;3.00;;;;;;;;5022259;28;9048;-79
2022/03/13 12:25:00;;;;;;;;;4.00;3.00;;;;;;;;5021833;28;9178;-80
2022/03/13 12:27:29;;;;;;;;;2.00;2.00;;;;;;;;5032479;28;9184;-78
2022/03/13 12:29:58;;;;;;;;;2.00;2.00;;;;;;;;5023506;28;10129;-79
2022/03/13 12:32:30;;;;;;;;;2.00;2.00;;;;;;;;5025374;28;9287;-79
2022/03/13 12:35:01;;;;;;;;;3.00;3.00;;;;;;;;5007371;28;9329;-77
2022/03/13 12:37:29;;;;;;;;;2.00;2.00;;;;;;;;5033647;28;9376;-78
2022/03/13 12:39:59;;;;;;;;;2.67;2.67;;;;;;;;5022216;28;9306;-78
2022/03/13 12:42:30;;;;;;;;;3.00;3.00;;;;;;;;5022157;28;9333;-77
2022/03/13 12:45:16;;;;;;;;;4.00;3.00;;;;;;;;5023968;28;9807;-79
2022/03/13 12:47:47;;;;;;;;;4.00;3.00;;;;;;;;5030375;28;10152;-78
2022/03/13 12:50:16;;;;;;;;;3.67;3.67;;;;;;;;5023245;28;9464;-78
2022/03/13 12:52:44;;;;;;;;;3.00;3.00;;;;;;;;5022152;28;9340;-78
2022/03/13 12:55:13;;;;;;;;;6.33;3.00;;;;;;;;5027273;28;9259;-78
2022/03/13 12:57:42;;;;;;;;;3.00;3.00;;;;;;;;5021969;28;9547;-78
2022/03/13 13:00:11;;;;;;;;;3.00;3.00;;;;;;;;5021256;28;9210;-77
2022/03/13 13:02:38;;;;;;;;;4.00;4.00;;;;;;;;5020420;28;9408;-78
2022/03/13 13:05:08;;;;;;;;;4.00;4.00;;;;;;;;5021639;28;10270;-78
2022/03/13 13:07:36;;;;;;;;;4.00;4.00;;;;;;;;5020238;28;9432;-79
2022/03/13 13:10:07;;;;;;;;;5.25;5.25;;;;;;;;5027694;28;9536;-78
2022/03/13 13:12:36;;;;;;;;;3.75;3.75;;;;;;;;5039351;28;9611;-79
2022/03/13 13:15:08;;;;;;;;;5.25;5.25;;;;;;;;5007761;28;9737;-78
2022/03/13 13:17:35;;;;;;;;;4.00;3.00;;;;;;;;5021380;28;9781;-79
2022/03/13 13:20:04;;;;;;;;;3.00;3.00;;;;;;;;5020354;28;9574;-78
2022/03/13 13:22:35;;;;;;;;;3.00;3.00;;;;;;;;5021488;28;9561;-78
2022/03/13 13:25:11;;;;;;;;;3.50;3.50;;;;;;;;5009385;28;9727;-78
2022/03/13 13:27:39;;;;;;;;;4.75;4.00;;;;;;;;5021795;28;9649;-79
2022/03/13 13:30:24;;;;;;;;;3.25;3.25;;;;;;;;5020832;28;10544;-78
2022/03/13 13:32:53;;;;;;;;;4.00;4.00;;;;;;;;5028967;28;9782;-78
2022/03/13 13:35:26;;;;;;;;;4.25;3.25;;;;;;;;5025223;28;9727;-78
2022/03/13 13:38:02;;;;;;;;;1.75;1.75;;;;;;;;5020268;28;9876;-78
2022/03/13 13:40:34;;;;;;;;;4.50;4.50;;;;;;;;5024617;28;9703;-78
2022/03/13 13:43:06;;;;;;;;;5.25;4.00;;;;;;;;5023835;28;9701;-76
2022/03/13 13:45:40;;;;;;;;;6.75;4.00;;;;;;;;5012691;28;9861;-78
2022/03/13 13:48:24;;;;;;;;;6.00;3.50;;;;;;;;5036740;28;9750;-79
2022/03/13 13:51:14;;;;;;;;;6.00;6.00;;;;;;;;5019787;28;9832;-79
2022/03/13 13:53:55;;;;;;;;;3.00;3.00;;;;;;;;5008672;28;9870;-79
2022/03/13 13:56:35;;;;;;;;;5.00;4.50;;;;;;;;5020727;28;9967;-80
2022/03/13 13:59:17;;;;;;;;;4.50;3.00;;;;;;;;4999260;28;10093;-76
2022/03/13 14:01:47;;;;;;;;;4.00;4.00;;;;;;;;5019898;28;9877;-77
2022/03/13 14:04:14;;;;;;;;;3.00;3.00;;;;;;;;5024450;28;10113;-77
2022/03/13 14:06:43;;;;;;;;;7.50;5.00;;;;;;;;5020982;28;9981;-78
2022/03/13 14:09:11;;;;;;;;;6.00;6.00;;;;;;;;5013293;28;10056;-78
2022/03/13 14:11:42;;;;;;;;;5.00;5.00;;;;;;;;5004260;28;10175;-78
2022/03/13 14:14:10;;;;;;;;;3.50;3.50;;;;;;;;5020839;28;10127;-78
2022/03/13 14:16:39;;;;;;;;;4.75;3.00;;;;;;;;5016581;28;10085;-77
2022/03/13 14:19:07;;;;;;;;;4.00;4.00;;;;;;;;5029015;28;10117;-77
2022/03/13 14:21:36;;;;;;;;;3.00;3.00;;;;;;;;5019197;28;10062;-77
2022/03/13 14:24:04;;;;;;;;;3.00;3.00;;;;;;;;5021167;28;10231;-77
2022/03/13 14:26:31;;;;;;;;;4.00;4.00;;;;;;;;5002366;28;9980;-77
2022/03/13 14:28:59;;;;;;;;;3.00;3.00;;;;;;;;5024719;28;10110;-77
2022/03/13 14:31:27;;;;;;;;;3.25;3.25;;;;;;;;5023448;28;10008;-77
2022/03/13 14:33:55;;;;;;;;;4.75;3.25;;;;;;;;5035383;28;10041;-79
2022/03/13 14:36:24;;;;;;;;;4.00;4.00;;;;;;;;5024577;28;10102;-79
2022/03/13 14:38:51;;;;;;;;;5.25;3.00;;;;;;;;5023384;28;10169;-78
2022/03/13 14:41:20;;;;;;;;;4.00;4.00;;;;;;;;5024822;28;10158;-77
2022/03/13 14:43:48;;;;;;;;;3.00;3.00;;;;;;;;5019419;28;10239;-77
2022/03/13 14:46:16;;;;;;;;;4.00;4.00;;;;;;;;5017222;28;10089;-77
2022/03/13 14:48:44;;;;;;;;;3.75;3.75;;;;;;;;5029313;28;10254;-78
2022/03/13 14:51:12;;;;;;;;;4.50;4.50;;;;;;;;5023378;28;10111;-79
2022/03/13 14:53:41;;;;;;;;;4.00;4.00;;;;;;;;5011672;28;10209;-78
2022/03/13 14:56:10;;;;;;;;;3.75;3.75;;;;;;;;5022940;28;10046;-78